sensor_id;sensor_type;location;lat;lon;timestamp;pressure;altitude;pressure_sealevel;temperature;humidity
43838;BME280;65998;46.256;7.534;2023-04-21T00:02:02;86311.63;;;19.12;48.98
43838;BME280;65998;46.256;7.534;2023-04-21T00:04:28;86313.84;;;19.09;48.87
43838;BME280;65998;46.256;7.534;2023-04-21T00:06:54;86301.25;;;19.10;48.92
43838;BME280;65998;46.256;7.534;2023-04-21T00:09:22;86294.72;;;19.16;48.68
43838;BME280;65998;46.256;7.534;2023-04-21T00:11:48;86291.56;;;19.09;48.78
43838;BME280;65998;46.256;7.534;2023-04-21T00:14:14;86302.72;;;19.09;48.74
43838;BME280;65998;46.256;7.534;2023-04-21T00:16:40;86290.22;;;19.08;48.60
43838;BME280;65998;46.256;7.534;2023-04-21T00:19:05;86293.00;;;19.08;48.54
43838;BME280;65998;46.256;7.534;2023-04-21T00:21:32;86306.16;;;19.10;48.52
43838;BME280;65998;46.256;7.534;2023-04-21T00:23:58;86298.69;;;19.06;48.70
43838;BME280;65998;46.256;7.534;2023-04-21T00:26:24;86296.56;;;19.07;48.43
43838;BME280;65998;46.256;7.534;2023-04-21T00:28:50;86289.00;;;19.05;48.57
43838;BME280;65998;46.256;7.534;2023-04-21T00:31:16;86289.66;;;19.06;48.30
43838;BME280;65998;46.256;7.534;2023-04-21T00:33:42;86292.44;;;19.06;48.19
43838;BME280;65998;46.256;7.534;2023-04-21T00:36:08;86291.78;;;19.05;48.00
43838;BME280;65998;46.256;7.534;2023-04-21T00:38:34;86292.44;;;19.06;48.15
43838;BME280;65998;46.256;7.534;2023-04-21T00:41:00;86285.44;;;19.07;48.18
43838;BME280;65998;46.256;7.534;2023-04-21T00:43:25;86291.78;;;19.05;48.15
43838;BME280;65998;46.256;7.534;2023-04-21T00:45:51;86279.19;;;19.06;47.88
43838;BME280;65998;46.256;7.534;2023-04-21T00:48:17;86283.31;;;19.07;47.78
43838;BME280;65998;46.256;7.534;2023-04-21T00:50:44;86290.78;;;19.11;47.87
43838;BME280;65998;46.256;7.534;2023-04-21T00:53:10;86288.00;;;19.11;47.65
43838;BME280;65998;46.256;7.534;2023-04-21T00:55:37;86274.97;;;19.07;47.74
43838;BME280;65998;46.256;7.534;2023-04-21T00:58:03;86280.53;;;19.07;47.69
43838;BME280;65998;46.256;7.534;2023-04-21T01:00:29;86272.97;;;19.06;47.52
43838;BME280;65998;46.256;7.534;2023-04-21T01:02:55;86276.31;;;19.08;47.50
43838;BME280;65998;46.256;7.534;2023-04-21T01:05:22;86274.97;;;19.07;47.52
43838;BME280;65998;46.256;7.534;2023-04-21T01:07:48;86272.19;;;19.07;47.36
43838;BME280;65998;46.256;7.534;2023-04-21T01:10:14;86269.50;;;19.05;47.29
43838;BME280;65998;46.256;7.534;2023-04-21T01:12:46;86271.97;;;19.11;47.27
43838;BME280;65998;46.256;7.534;2023-04-21T01:15:14;86270.75;;;19.08;47.30
43838;BME280;65998;46.256;7.534;2023-04-21T01:17:40;86270.19;;;19.06;47.20
43838;BME280;65998;46.256;7.534;2023-04-21T01:20:08;86265.84;;;19.09;47.10
43838;BME280;65998;46.256;7.534;2023-04-21T01:22:36;86272.06;;;19.09;47.00
43838;BME280;65998;46.256;7.534;2023-04-21T01:25:03;86280.53;;;19.07;46.97
43838;BME280;65998;46.256;7.534;2023-04-21T01:27:29;86279.31;;;19.04;46.93
43838;BME280;65998;46.256;7.534;2023-04-21T01:29:55;86277.19;;;19.05;46.72
43838;BME280;65998;46.256;7.534;2023-04-21T01:32:25;86274.19;;;19.09;46.86
43838;BME280;65998;46.256;7.534;2023-04-21T01:34:52;86272.97;;;19.06;46.63
43838;BME280;65998;46.256;7.534;2023-04-21T01:37:21;86267.19;;;19.10;46.59
43838;BME280;65998;46.256;7.534;2023-04-21T01:39:50;86272.75;;;19.10;46.57
43838;BME280;65998;46.256;7.534;2023-04-21T01:42:17;86267.38;;;19.06;46.46
43838;BME280;65998;46.256;7.534;2023-04-21T01:44:44;86267.38;;;19.06;46.32
43838;BME280;65998;46.256;7.534;2023-04-21T01:47:09;86272.97;;;19.06;46.28
43838;BME280;65998;46.256;7.534;2023-04-21T01:49:35;86266.72;;;19.05;46.20
43838;BME280;65998;46.256;7.534;2023-04-21T01:52:01;86269.50;;;19.05;46.15
43838;BME280;65998;46.256;7.534;2023-04-21T01:54:27;86270.28;;;19.04;46.15
43838;BME280;65998;46.256;7.534;2023-04-21T01:56:53;86270.28;;;19.04;46.03
43838;BME280;65998;46.256;7.534;2023-04-21T01:59:19;86283.53;;;19.03;46.15
43838;BME280;65998;46.256;7.534;2023-04-21T02:01:45;86273.84;;;19.02;46.08
43838;BME280;65998;46.256;7.534;2023-04-21T02:04:11;86274.50;;;19.03;46.13
43838;BME280;65998;46.256;7.534;2023-04-21T02:06:36;86272.50;;;19.01;46.11
43838;BME280;65998;46.256;7.534;2023-04-21T02:09:02;86266.94;;;19.01;45.97
43838;BME280;65998;46.256;7.534;2023-04-21T02:11:28;86271.16;;;19.00;45.92
43838;BME280;65998;46.256;7.534;2023-04-21T02:13:55;86274.50;;;19.03;45.91
43838;BME280;65998;46.256;7.534;2023-04-21T02:16:21;86266.94;;;19.01;45.80
43838;BME280;65998;46.256;7.534;2023-04-21T02:18:47;86275.28;;;19.01;45.81
43838;BME280;65998;46.256;7.534;2023-04-21T02:21:13;86274.63;;;19.01;45.78
43838;BME280;65998;46.256;7.534;2023-04-21T02:23:39;86278.16;;;18.99;45.74
43838;BME280;65998;46.256;7.534;2023-04-21T02:26:05;86276.06;;;19.00;45.70
43838;BME280;65998;46.256;7.534;2023-04-21T02:28:31;86264.25;;;18.99;45.63
43838;BME280;65998;46.256;7.534;2023-04-21T02:30:56;86272.72;;;18.97;45.53
43838;BME280;65998;46.256;7.534;2023-04-21T02:33:22;86263.69;;;18.97;45.43
43838;BME280;65998;46.256;7.534;2023-04-21T02:35:48;86266.47;;;18.97;45.50
43838;BME280;65998;46.256;7.534;2023-04-21T02:38:14;86276.94;;;18.96;45.51
43838;BME280;65998;46.256;7.534;2023-04-21T02:40:40;86281.84;;;18.96;45.49
43838;BME280;65998;46.256;7.534;2023-04-21T02:43:06;86279.16;;;18.94;45.38
43838;BME280;65998;46.256;7.534;2023-04-21T02:45:31;86272.25;;;18.93;45.17
43838;BME280;65998;46.256;7.534;2023-04-21T02:47:57;86291.16;;;18.90;45.18
43838;BME280;65998;46.256;7.534;2023-04-21T02:50:23;86293.94;;;18.90;44.94
43838;BME280;65998;46.256;7.534;2023-04-21T02:52:49;86287.03;;;18.89;44.94
43838;BME280;65998;46.256;7.534;2023-04-21T02:55:15;86284.25;;;18.89;45.01
43838;BME280;65998;46.256;7.534;2023-04-21T02:57:41;86281.56;;;18.87;44.96
43838;BME280;65998;46.256;7.534;2023-04-21T03:00:07;86278.69;;;18.89;44.87
43838;BME280;65998;46.256;7.534;2023-04-21T03:02:33;86276.78;;;18.86;44.96
43838;BME280;65998;46.256;7.534;2023-04-21T03:04:58;86274.66;;;18.86;45.08
43838;BME280;65998;46.256;7.534;2023-04-21T03:07:24;86272.66;;;18.85;44.95
43838;BME280;65998;46.256;7.534;2023-04-21T03:09:50;86274.09;;;18.84;44.95
43838;BME280;65998;46.256;7.534;2023-04-21T03:12:16;86272.75;;;18.83;45.02
43838;BME280;65998;46.256;7.534;2023-04-21T03:14:42;86265.84;;;18.81;45.16
43838;BME280;65998;46.256;7.534;2023-04-21T03:17:08;86267.97;;;18.81;45.06
43838;BME280;65998;46.256;7.534;2023-04-21T03:19:33;86269.41;;;18.80;45.18
43838;BME280;65998;46.256;7.534;2023-04-21T03:21:59;86272.88;;;18.80;44.96
43838;BME280;65998;46.256;7.534;2023-04-21T03:24:25;86267.41;;;18.78;44.93
43838;BME280;65998;46.256;7.534;2023-04-21T03:26:51;86270.84;;;18.79;44.95
43838;BME280;65998;46.256;7.534;2023-04-21T03:29:16;86268.19;;;18.77;44.96
43838;BME280;65998;46.256;7.534;2023-04-21T03:31:42;86267.50;;;18.76;45.09
43838;BME280;65998;46.256;7.534;2023-04-21T03:34:08;86274.50;;;18.75;44.97
43838;BME280;65998;46.256;7.534;2023-04-21T03:36:34;86269.06;;;18.73;44.95
43838;BME280;65998;46.256;7.534;2023-04-21T03:39:00;86272.50;;;18.74;45.08
43838;BME280;65998;46.256;7.534;2023-04-21T03:41:26;86272.56;;;18.72;44.90
43838;BME280;65998;46.256;7.534;2023-04-21T03:43:51;86289.38;;;18.70;45.03
43838;BME280;65998;46.256;7.534;2023-04-21T03:46:21;86290.53;;;18.75;44.97
43838;BME280;65998;46.256;7.534;2023-04-21T03:48:47;86290.06;;;18.70;44.97
43838;BME280;65998;46.256;7.534;2023-04-21T03:51:13;86284.47;;;18.70;44.90
43838;BME280;65998;46.256;7.534;2023-04-21T03:53:39;86292.25;;;18.68;44.95
43838;BME280;65998;46.256;7.534;2023-04-21T03:56:06;86288.81;;;18.67;45.02
43838;BME280;65998;46.256;7.534;2023-04-21T03:58:32;86297.25;;;18.65;44.97
43838;BME280;65998;46.256;7.534;2023-04-21T04:00:58;86303.59;;;18.64;44.96
43838;BME280;65998;46.256;7.534;2023-04-21T04:03:23;86304.38;;;18.62;44.93
43838;BME280;65998;46.256;7.534;2023-04-21T04:05:49;86305.03;;;18.63;45.03
43838;BME280;65998;46.256;7.534;2023-04-21T04:08:15;86306.47;;;18.62;45.11
43838;BME280;65998;46.256;7.534;2023-04-21T04:10:41;86313.47;;;18.61;45.13
43838;BME280;65998;46.256;7.534;2023-04-21T04:13:07;86319.03;;;18.61;45.19
43838;BME280;65998;46.256;7.534;2023-04-21T04:15:33;86314.22;;;18.59;45.21
43838;BME280;65998;46.256;7.534;2023-04-21T04:17:58;86305.97;;;18.57;45.18
43838;BME280;65998;46.256;7.534;2023-04-21T04:20:24;86304.63;;;18.56;45.25
43838;BME280;65998;46.256;7.534;2023-04-21T04:22:50;86308.19;;;18.55;45.17
43838;BME280;65998;46.256;7.534;2023-04-21T04:25:16;86307.53;;;18.54;45.28
43838;BME280;65998;46.256;7.534;2023-04-21T04:27:42;86311.66;;;18.55;45.20
43838;BME280;65998;46.256;7.534;2023-04-21T04:30:09;86309.63;;;18.54;45.13
43838;BME280;65998;46.256;7.534;2023-04-21T04:32:35;86309.75;;;18.51;45.10
43838;BME280;65998;46.256;7.534;2023-04-21T04:35:01;86308.41;;;18.50;45.23
43838;BME280;65998;46.256;7.534;2023-04-21T04:37:26;86311.94;;;18.49;45.20
43838;BME280;65998;46.256;7.534;2023-04-21T04:39:53;86323.75;;;18.49;45.24
43838;BME280;65998;46.256;7.534;2023-04-21T04:42:18;86319.72;;;18.46;45.19
43838;BME280;65998;46.256;7.534;2023-04-21T04:44:45;86326.63;;;18.47;45.19
43838;BME280;65998;46.256;7.534;2023-04-21T04:47:10;86321.94;;;18.44;45.15
43838;BME280;65998;46.256;7.534;2023-04-21T04:49:36;86317.81;;;18.43;44.84
43838;BME280;65998;46.256;7.534;2023-04-21T04:52:02;86322.03;;;18.42;45.09
43838;BME280;65998;46.256;7.534;2023-04-21T04:54:28;86320.69;;;18.41;45.09
43838;BME280;65998;46.256;7.534;2023-04-21T04:56:54;86325.59;;;18.40;45.21
43838;BME280;65998;46.256;7.534;2023-04-21T04:59:20;86323.56;;;18.39;45.18
43838;BME280;65998;46.256;7.534;2023-04-21T05:01:46;86322.91;;;18.38;45.21
43838;BME280;65998;46.256;7.534;2023-04-21T05:04:12;86326.44;;;18.37;45.16
43838;BME280;65998;46.256;7.534;2023-04-21T05:06:38;86330.00;;;18.35;45.07
43838;BME280;65998;46.256;7.534;2023-04-21T05:09:04;86328.00;;;18.34;45.01
43838;BME280;65998;46.256;7.534;2023-04-21T05:11:29;86333.56;;;18.34;45.13
43838;BME280;65998;46.256;7.534;2023-04-21T05:13:55;86335.66;;;18.33;45.18
43838;BME280;65998;46.256;7.534;2023-04-21T05:16:21;86343.22;;;18.35;45.96
43838;BME280;65998;46.256;7.534;2023-04-21T05:18:47;86343.34;;;18.33;46.96
43838;BME280;65998;46.256;7.534;2023-04-21T05:21:12;86344.78;;;18.32;46.79
43838;BME280;65998;46.256;7.534;2023-04-21T05:23:38;86357.34;;;18.31;46.54
43838;BME280;65998;46.256;7.534;2023-04-21T05:26:04;86354.75;;;18.27;46.29
43838;BME280;65998;46.256;7.534;2023-04-21T05:28:30;86354.75;;;18.27;46.03
43838;BME280;65998;46.256;7.534;2023-04-21T05:30:56;86354.16;;;18.24;46.08
43838;BME280;65998;46.256;7.534;2023-04-21T05:33:22;86359.94;;;18.20;46.09
43838;BME280;65998;46.256;7.534;2023-04-21T05:35:47;86366.94;;;18.19;46.13
43838;BME280;65998;46.256;7.534;2023-04-21T05:38:13;86362.13;;;18.17;46.25
43838;BME280;65998;46.256;7.534;2023-04-21T05:40:39;86371.25;;;18.16;46.21
43838;BME280;65998;46.256;7.534;2023-04-21T05:43:05;86360.88;;;18.14;46.25
43838;BME280;65998;46.256;7.534;2023-04-21T05:45:31;86365.09;;;18.13;45.97
43838;BME280;65998;46.256;7.534;2023-04-21T05:47:57;86366.53;;;18.12;46.09
43838;BME280;65998;46.256;7.534;2023-04-21T05:50:22;86368.66;;;18.12;46.11
43838;BME280;65998;46.256;7.534;2023-04-21T05:52:48;86370.09;;;18.11;46.39
43838;BME280;65998;46.256;7.534;2023-04-21T05:55:14;86375.06;;;18.08;46.58
43838;BME280;65998;46.256;7.534;2023-04-21T05:57:40;86373.72;;;18.07;46.54
43838;BME280;65998;46.256;7.534;2023-04-21T06:00:06;86370.94;;;18.07;46.57
43838;BME280;65998;46.256;7.534;2023-04-21T06:02:32;86367.50;;;18.07;46.68
43838;BME280;65998;46.256;7.534;2023-04-21T06:04:58;86375.25;;;18.04;46.76
43838;BME280;65998;46.256;7.534;2023-04-21T06:07:24;86368.44;;;18.01;46.78
43838;BME280;65998;46.256;7.534;2023-04-21T06:09:50;86370.56;;;18.01;46.93
43838;BME280;65998;46.256;7.534;2023-04-21T06:12:16;86369.97;;;17.98;47.00
43838;BME280;65998;46.256;7.534;2023-04-21T06:14:41;86371.41;;;17.97;47.11
43838;BME280;65998;46.256;7.534;2023-04-21T06:17:07;86370.75;;;17.97;47.01
43838;BME280;65998;46.256;7.534;2023-04-21T06:19:36;86369.78;;;18.02;47.12
43838;BME280;65998;46.256;7.534;2023-04-21T06:22:02;86379.84;;;17.95;47.63
43838;BME280;65998;46.256;7.534;2023-04-21T06:24:31;86379.66;;;17.99;47.73
43838;BME280;65998;46.256;7.534;2023-04-21T06:26:57;86384.16;;;17.92;47.70
43838;BME280;65998;46.256;7.534;2023-04-21T06:29:23;86380.72;;;17.92;47.89
43838;BME280;65998;46.256;7.534;2023-04-21T06:31:49;86385.59;;;17.91;47.93
43838;BME280;65998;46.256;7.534;2023-04-21T06:34:14;86380.81;;;17.90;48.11
43838;BME280;65998;46.256;7.534;2023-04-21T06:36:40;86388.47;;;17.89;48.36
43838;BME280;65998;46.256;7.534;2023-04-21T06:39:06;86393.25;;;17.91;49.37
43838;BME280;65998;46.256;7.534;2023-04-21T06:41:32;86395.38;;;17.90;49.78
43838;BME280;65998;46.256;7.534;2023-04-21T06:43:57;86398.81;;;17.91;50.07
43838;BME280;65998;46.256;7.534;2023-04-21T06:46:23;86389.13;;;17.90;50.53
43838;BME280;65998;46.256;7.534;2023-04-21T06:48:49;86393.94;;;17.91;50.77
43838;BME280;65998;46.256;7.534;2023-04-21T06:51:15;86387.78;;;17.89;50.79
43838;BME280;65998;46.256;7.534;2023-04-21T06:53:41;86382.34;;;17.86;50.83
43838;BME280;65998;46.256;7.534;2023-04-21T06:56:07;86378.88;;;17.86;50.87
43838;BME280;65998;46.256;7.534;2023-04-21T06:58:32;86373.41;;;17.84;51.02
43838;BME280;65998;46.256;7.534;2023-04-21T07:00:58;86371.31;;;17.84;50.99
43838;BME280;65998;46.256;7.534;2023-04-21T07:03:24;86368.63;;;17.82;50.92
43838;BME280;65998;46.256;7.534;2023-04-21T07:05:50;86365.75;;;17.84;51.05
43838;BME280;65998;46.256;7.534;2023-04-21T07:08:15;86360.28;;;17.82;51.06
43838;BME280;65998;46.256;7.534;2023-04-21T07:10:41;86367.28;;;17.81;51.16
43838;BME280;65998;46.256;7.534;2023-04-21T07:13:07;86370.06;;;17.81;51.22
43838;BME280;65998;46.256;7.534;2023-04-21T07:15:33;86338.16;;;17.80;51.10
43838;BME280;65998;46.256;7.534;2023-04-21T07:17:59;86339.56;;;17.79;51.19
43838;BME280;65998;46.256;7.534;2023-04-21T07:20:25;86350.50;;;17.83;51.00
43838;BME280;65998;46.256;7.534;2023-04-21T07:22:51;86360.19;;;17.84;50.69
43838;BME280;65998;46.256;7.534;2023-04-21T07:25:17;86364.97;;;17.86;50.03
43838;BME280;65998;46.256;7.534;2023-04-21T07:27:42;86364.22;;;17.88;49.49
43838;BME280;65998;46.256;7.534;2023-04-21T07:30:09;86344.00;;;17.89;49.00
43838;BME280;65998;46.256;7.534;2023-04-21T07:32:34;86348.78;;;17.91;48.68
43838;BME280;65998;46.256;7.534;2023-04-21T07:35:00;86346.00;;;17.91;48.46
43838;BME280;65998;46.256;7.534;2023-04-21T07:37:26;86339.78;;;17.90;48.16
43838;BME280;65998;46.256;7.534;2023-04-21T07:39:52;86346.78;;;17.89;47.98
43838;BME280;65998;46.256;7.534;2023-04-21T07:42:18;86345.34;;;17.90;47.77
43838;BME280;65998;46.256;7.534;2023-04-21T07:44:44;86334.91;;;17.91;47.75
43838;BME280;65998;46.256;7.534;2023-04-21T07:47:10;86338.34;;;17.91;47.58
43838;BME280;65998;46.256;7.534;2023-04-21T07:49:35;86343.22;;;17.91;47.71
43838;BME280;65998;46.256;7.534;2023-04-21T07:52:01;86346.69;;;17.91;47.54
43838;BME280;65998;46.256;7.534;2023-04-21T07:54:27;86345.25;;;17.92;47.48
43838;BME280;65998;46.256;7.534;2023-04-21T07:56:53;86336.91;;;17.92;47.68
43838;BME280;65998;46.256;7.534;2023-04-21T07:59:19;86328.47;;;17.94;47.67
43838;BME280;65998;46.256;7.534;2023-04-21T08:01:44;86311.13;;;17.94;47.35
43838;BME280;65998;46.256;7.534;2023-04-21T08:04:10;86317.44;;;17.92;47.08
43838;BME280;65998;46.256;7.534;2023-04-21T08:06:36;86327.81;;;17.94;47.26
43838;BME280;65998;46.256;7.534;2023-04-21T08:09:02;86343.03;;;17.95;47.09
43838;BME280;65998;46.256;7.534;2023-04-21T08:11:28;86345.81;;;17.95;47.32
43838;BME280;65998;46.256;7.534;2023-04-21T08:13:54;86352.06;;;17.95;47.28
43838;BME280;65998;46.256;7.534;2023-04-21T08:16:19;86349.19;;;17.97;47.19
43838;BME280;65998;46.256;7.534;2023-04-21T08:18:45;86353.38;;;17.81;46.40
43838;BME280;65998;46.256;7.534;2023-04-21T08:21:11;86358.69;;;17.39;45.71
43838;BME280;65998;46.256;7.534;2023-04-21T08:23:37;86362.56;;;16.98;45.98
43838;BME280;65998;46.256;7.534;2023-04-21T08:26:03;86356.88;;;16.69;47.14
43838;BME280;65998;46.256;7.534;2023-04-21T08:28:29;86364.13;;;16.26;47.79
43838;BME280;65998;46.256;7.534;2023-04-21T08:30:55;86363.03;;;15.83;48.58
43838;BME280;65998;46.256;7.534;2023-04-21T08:33:21;86353.91;;;15.49;48.95
43838;BME280;65998;46.256;7.534;2023-04-21T08:35:46;86342.91;;;15.28;48.98
43838;BME280;65998;46.256;7.534;2023-04-21T08:38:12;86351.38;;;15.24;48.93
43838;BME280;65998;46.256;7.534;2023-04-21T08:40:38;86352.63;;;15.27;48.67
43838;BME280;65998;46.256;7.534;2023-04-21T08:43:05;86357.13;;;15.37;48.89
43838;BME280;65998;46.256;7.534;2023-04-21T08:45:31;86360.41;;;15.42;48.95
43838;BME280;65998;46.256;7.534;2023-04-21T08:47:59;86361.94;;;15.57;49.12
43838;BME280;65998;46.256;7.534;2023-04-21T08:50:28;86363.75;;;15.65;49.17
43838;BME280;65998;46.256;7.534;2023-04-21T08:52:55;86366.72;;;15.59;49.26
43838;BME280;65998;46.256;7.534;2023-04-21T08:55:28;86368.31;;;15.73;48.81
43838;BME280;65998;46.256;7.534;2023-04-21T08:57:55;86369.13;;;15.69;48.78
43838;BME280;65998;46.256;7.534;2023-04-21T09:00:21;86373.91;;;15.71;48.93
43838;BME280;65998;46.256;7.534;2023-04-21T09:02:55;86372.41;;;15.74;48.86
43838;BME280;65998;46.256;7.534;2023-04-21T09:05:22;86377.13;;;15.77;48.65
43838;BME280;65998;46.256;7.534;2023-04-21T09:07:49;86372.94;;;15.78;48.71
43838;BME280;65998;46.256;7.534;2023-04-21T09:10:21;86377.25;;;15.92;48.50
43838;BME280;65998;46.256;7.534;2023-04-21T09:12:50;86383.16;;;16.01;48.52
43838;BME280;65998;46.256;7.534;2023-04-21T09:15:16;86379.72;;;16.00;48.30
43838;BME280;65998;46.256;7.534;2023-04-21T09:17:43;86382.09;;;16.10;48.14
43838;BME280;65998;46.256;7.534;2023-04-21T09:20:15;86393.00;;;16.14;48.18
43838;BME280;65998;46.256;7.534;2023-04-21T09:22:42;86393.78;;;15.94;48.22
43838;BME280;65998;46.256;7.534;2023-04-21T09:25:08;86391.34;;;15.86;47.83
43838;BME280;65998;46.256;7.534;2023-04-21T09:27:37;86388.13;;;15.79;47.40
43838;BME280;65998;46.256;7.534;2023-04-21T09:30:04;86394.81;;;15.68;47.10
43838;BME280;65998;46.256;7.534;2023-04-21T09:32:35;86398.47;;;15.62;48.49
43838;BME280;65998;46.256;7.534;2023-04-21T09:35:01;86396.63;;;15.54;49.85
43838;BME280;65998;46.256;7.534;2023-04-21T09:37:31;86406.41;;;15.72;49.67
43838;BME280;65998;46.256;7.534;2023-04-21T09:39:58;86405.34;;;15.82;49.88
43838;BME280;65998;46.256;7.534;2023-04-21T09:42:28;86409.00;;;15.95;49.86
43838;BME280;65998;46.256;7.534;2023-04-21T09:44:53;86406.75;;;16.00;49.96
43838;BME280;65998;46.256;7.534;2023-04-21T09:47:20;86420.88;;;16.10;49.90
43838;BME280;65998;46.256;7.534;2023-04-21T09:49:50;86410.75;;;16.21;49.80
43838;BME280;65998;46.256;7.534;2023-04-21T09:52:19;86407.72;;;16.27;49.42
43838;BME280;65998;46.256;7.534;2023-04-21T09:54:58;86409.44;;;16.37;49.24
43838;BME280;65998;46.256;7.534;2023-04-21T09:57:26;86407.25;;;16.40;49.27
43838;BME280;65998;46.256;7.534;2023-04-21T10:00:02;86403.41;;;16.49;48.86
43838;BME280;65998;46.256;7.534;2023-04-21T10:02:30;86410.97;;;16.51;48.81
43838;BME280;65998;46.256;7.534;2023-04-21T10:04:57;86414.91;;;16.56;48.97
43838;BME280;65998;46.256;7.534;2023-04-21T10:07:23;86413.47;;;16.57;48.75
43838;BME280;65998;46.256;7.534;2023-04-21T10:09:54;86424.13;;;16.69;48.50
43838;BME280;65998;46.256;7.534;2023-04-21T10:12:22;86422.72;;;16.70;48.51
43838;BME280;65998;46.256;7.534;2023-04-21T10:14:53;86429.53;;;16.73;48.48
43838;BME280;65998;46.256;7.534;2023-04-21T10:17:24;86433.38;;;16.80;48.36
43838;BME280;65998;46.256;7.534;2023-04-21T10:19:52;86441.53;;;16.84;48.48
43838;BME280;65998;46.256;7.534;2023-04-21T10:22:32;86442.72;;;16.89;48.58
43838;BME280;65998;46.256;7.534;2023-04-21T10:24:59;86442.72;;;16.89;48.62
43838;BME280;65998;46.256;7.534;2023-04-21T10:27:41;86433.38;;;16.97;48.58
43838;BME280;65998;46.256;7.534;2023-04-21T10:30:22;86438.09;;;17.01;48.63
43838;BME280;65998;46.256;7.534;2023-04-21T10:33:01;86424.13;;;17.03;48.73
43838;BME280;65998;46.256;7.534;2023-04-21T10:35:57;86436.50;;;17.06;48.80
43838;BME280;65998;46.256;7.534;2023-04-21T10:38:42;86437.09;;;17.08;48.82
43838;BME280;65998;46.256;7.534;2023-04-21T10:41:29;86423.72;;;17.13;48.96
43838;BME280;65998;46.256;7.534;2023-04-21T10:43:59;86424.97;;;17.16;48.88
43838;BME280;65998;46.256;7.534;2023-04-21T10:46:36;86420.00;;;17.18;49.10
43838;BME280;65998;46.256;7.534;2023-04-21T10:51:30;86418.66;;;17.17;48.95
43838;BME280;65998;46.256;7.534;2023-04-21T10:53:56;86420.59;;;17.21;49.03
43838;BME280;65998;46.256;7.534;2023-04-21T10:56:22;86415.53;;;17.26;49.05
43838;BME280;65998;46.256;7.534;2023-04-21T10:58:50;86408.38;;;17.31;49.08
43838;BME280;65998;46.256;7.534;2023-04-21T11:01:17;86406.34;;;17.29;48.99
43838;BME280;65998;46.256;7.534;2023-04-21T11:03:43;86402.72;;;17.33;49.02
43838;BME280;65998;46.256;7.534;2023-04-21T11:06:15;86398.94;;;17.40;48.92
43838;BME280;65998;46.256;7.534;2023-04-21T11:08:54;86393.19;;;17.44;49.03
43838;BME280;65998;46.256;7.534;2023-04-21T11:11:22;86396.06;;;17.42;49.08
43838;BME280;65998;46.256;7.534;2023-04-21T11:13:48;86402.28;;;17.43;49.16
43838;BME280;65998;46.256;7.534;2023-04-21T11:16:14;86388.31;;;17.45;49.11
43838;BME280;65998;46.256;7.534;2023-04-21T11:18:42;86390.25;;;17.48;49.12
43838;BME280;65998;46.256;7.534;2023-04-21T11:21:09;86384.59;;;17.50;49.11
43838;BME280;65998;46.256;7.534;2023-04-21T11:23:39;86386.44;;;17.56;48.88
43838;BME280;65998;46.256;7.534;2023-04-21T11:26:05;86386.59;;;17.52;49.02
43838;BME280;65998;46.256;7.534;2023-04-21T11:28:31;86383.66;;;17.56;48.93
43838;BME280;65998;46.256;7.534;2023-04-21T11:30:57;86378.69;;;17.59;48.85
43838;BME280;65998;46.256;7.534;2023-04-21T11:33:23;86373.13;;;17.59;48.95
43838;BME280;65998;46.256;7.534;2023-04-21T11:35:52;86368.91;;;17.60;48.94
43838;BME280;65998;46.256;7.534;2023-04-21T11:38:18;86361.16;;;17.62;48.81
43838;BME280;65998;46.256;7.534;2023-04-21T11:40:47;86367.06;;;17.71;48.72
43838;BME280;65998;46.256;7.534;2023-04-21T11:43:14;86361.00;;;17.66;48.79
43838;BME280;65998;46.256;7.534;2023-04-21T11:45:40;86357.44;;;17.68;48.71
43838;BME280;65998;46.256;7.534;2023-04-21T11:48:15;86357.88;;;17.74;48.67
43838;BME280;65998;46.256;7.534;2023-04-21T11:50:46;86353.66;;;17.75;48.85
43838;BME280;65998;46.256;7.534;2023-04-21T11:53:14;86359.97;;;17.74;48.67
43838;BME280;65998;46.256;7.534;2023-04-21T11:55:46;86364.59;;;17.79;48.60
43838;BME280;65998;46.256;7.534;2023-04-21T11:58:12;86362.09;;;17.73;48.78
43838;BME280;65998;46.256;7.534;2023-04-21T12:00:37;86364.09;;;17.75;48.79
43838;BME280;65998;46.256;7.534;2023-04-21T12:03:07;86362.38;;;17.82;48.63
43838;BME280;65998;46.256;7.534;2023-04-21T12:05:34;86369.97;;;17.83;48.82
43838;BME280;65998;46.256;7.534;2023-04-21T12:08:01;86367.94;;;17.82;48.86
43838;BME280;65998;46.256;7.534;2023-04-21T12:10:28;86369.78;;;17.88;48.93
43838;BME280;65998;46.256;7.534;2023-04-21T12:12:55;86369.09;;;17.87;49.20
43838;BME280;65998;46.256;7.534;2023-04-21T12:15:21;86367.84;;;17.84;49.40
43838;BME280;65998;46.256;7.534;2023-04-21T12:17:49;86369.69;;;17.90;49.41
43838;BME280;65998;46.256;7.534;2023-04-21T12:20:17;86373.13;;;17.90;49.51
43838;BME280;65998;46.256;7.534;2023-04-21T12:22:44;86378.13;;;17.88;49.36
43838;BME280;65998;46.256;7.534;2023-04-21T12:25:10;86391.91;;;17.90;49.46
43838;BME280;65998;46.256;7.534;2023-04-21T12:27:36;86395.28;;;17.92;49.49
43838;BME280;65998;46.256;7.534;2023-04-21T12:30:02;86399.31;;;17.95;49.42
43838;BME280;65998;46.256;7.534;2023-04-21T12:32:28;86401.31;;;17.97;49.34
43838;BME280;65998;46.256;7.534;2023-04-21T12:34:54;86397.19;;;17.96;49.53
43838;BME280;65998;46.256;7.534;2023-04-21T12:37:20;86403.25;;;18.00;49.50
43838;BME280;65998;46.256;7.534;2023-04-21T12:39:46;86399.13;;;17.99;49.53
43838;BME280;65998;46.256;7.534;2023-04-21T12:42:12;86403.91;;;18.01;49.44
43838;BME280;65998;46.256;7.534;2023-04-21T12:44:38;86398.84;;;18.05;49.52
43838;BME280;65998;46.256;7.534;2023-04-21T12:47:04;86401.63;;;18.05;49.44
43838;BME280;65998;46.256;7.534;2023-04-21T12:49:30;86398.94;;;18.03;49.38
43838;BME280;65998;46.256;7.534;2023-04-21T12:51:56;86402.28;;;18.06;49.30
43838;BME280;65998;46.256;7.534;2023-04-21T12:54:22;86399.50;;;18.06;49.43
43838;BME280;65998;46.256;7.534;2023-04-21T12:56:48;86401.53;;;18.07;49.30
43838;BME280;65998;46.256;7.534;2023-04-21T12:59:14;86400.09;;;18.08;49.28
43838;BME280;65998;46.256;7.534;2023-04-21T13:01:40;86398.66;;;18.09;49.32